createdAt,value
2018-02-21T00:00:05.372Z,2.28
2018-02-21T00:05:06.684Z,2.12
2018-02-21T00:10:08.066Z,1.93
2018-02-21T00:15:09.381Z,2.02
2018-02-21T00:20:10.714Z,1.93
2018-02-21T00:25:12.863Z,1.78
2018-02-21T00:30:14.219Z,1.91
2018-02-21T00:35:15.547Z,1.93
2018-02-21T00:40:16.923Z,1.81
2018-02-21T00:45:18.244Z,1.44
2018-02-21T00:50:19.556Z,1.32
2018-02-21T00:55:21.134Z,1.52
2018-02-21T01:00:22.602Z,1.62
2018-02-21T01:05:23.927Z,1.66
2018-02-21T01:10:25.292Z,1.66
2018-02-21T01:15:26.638Z,1.59
2018-02-21T01:20:27.984Z,1.51
2018-02-21T01:25:29.354Z,1.45
2018-02-21T01:30:30.688Z,1.59
2018-02-21T01:35:32.794Z,1.57
2018-02-21T01:40:34.186Z,1.56
2018-02-21T01:45:36.268Z,1.49
2018-02-21T01:50:51.746Z,1.41
2018-02-21T01:55:53.076Z,1.25
2018-02-21T02:00:54.560Z,0.99
2018-02-21T02:05:55.883Z,0.75
2018-02-21T02:10:57.927Z,0.88
2018-02-21T02:15:59.243Z,0.79
2018-02-21T02:21:00.635Z,0.71
2018-02-21T02:26:01.991Z,0.75
2018-02-21T02:31:03.328Z,0.90
2018-02-21T02:36:04.684Z,0.77
2018-02-21T02:41:06.031Z,0.61
2018-02-21T02:46:08.128Z,0.73
2018-02-21T02:51:09.473Z,0.80
2018-02-21T02:56:10.825Z,0.94
2018-02-21T03:01:12.935Z,0.90
2018-02-21T03:06:15.036Z,0.85
2018-02-21T03:11:17.145Z,0.84
2018-02-21T03:16:19.336Z,0.84
2018-02-21T03:21:20.663Z,0.81
2018-02-21T03:26:22.051Z,0.92
2018-02-21T03:31:23.375Z,0.61
2018-02-21T03:36:24.735Z,0.85
2018-02-21T03:41:26.054Z,1.01
2018-02-21T03:46:27.373Z,0.93
2018-02-21T03:51:28.722Z,0.85
2018-02-21T03:56:30.076Z,0.94
2018-02-21T04:01:32.150Z,0.84
2018-02-21T04:06:33.519Z,0.85
2018-02-21T04:11:34.863Z,0.87
2018-02-21T04:16:36.979Z,0.86
2018-02-21T04:21:38.352Z,0.76
2018-02-21T04:26:39.707Z,0.78
2018-02-21T04:31:41.107Z,0.71
2018-02-21T04:36:42.485Z,0.76
2018-02-21T04:41:43.907Z,0.73
2018-02-21T04:46:45.256Z,0.49
2018-02-21T04:51:46.571Z,0.45
2018-02-21T04:56:52.812Z,0.26
2018-02-21T05:01:54.190Z,0.16
2018-02-21T05:06:56.326Z,0.31
2018-02-21T05:11:57.651Z,0.14
2018-02-21T05:16:59.006Z,0.16
2018-02-21T05:22:00.352Z,0.44
2018-02-21T05:27:01.733Z,0.42
2018-02-21T05:32:03.084Z,0.28
2018-02-21T05:37:04.440Z,0.17
2018-02-21T05:42:06.591Z,0.29
2018-02-21T05:47:07.972Z,-0.23
2018-02-21T05:52:09.351Z,-0.10
2018-02-21T05:57:10.748Z,-0.03
2018-02-21T06:02:12.197Z,-0.46
2018-02-21T06:07:13.555Z,0.22
2018-02-21T06:12:14.916Z,-0.05
2018-02-21T06:17:16.237Z,0.10
2018-02-21T06:22:17.627Z,0.16
2018-02-21T06:27:19.061Z,0.14
2018-02-21T06:32:20.411Z,0.05
2018-02-21T06:37:21.761Z,-0.05
2018-02-21T06:42:23.824Z,-0.03
2018-02-21T06:47:25.164Z,0.05
2018-02-21T06:52:26.524Z,-0.06
2018-02-21T06:57:28.786Z,0.08
2018-02-21T07:02:34.024Z,0.07
2018-02-21T07:07:36.100Z,0.11
2018-02-21T07:12:44.404Z,-0.08
2018-02-21T07:17:45.902Z,0.07
2018-02-21T07:22:48.249Z,0.10
2018-02-21T07:27:49.661Z,-0.04
2018-02-21T07:32:50.996Z,0.09
2018-02-21T07:37:52.321Z,0.41
2018-02-21T07:42:53.708Z,0.24
2018-02-21T07:47:55.067Z,0.36
2018-02-21T07:52:56.834Z,0.81
2018-02-21T07:57:58.271Z,0.92
2018-02-21T08:02:59.679Z,1.13
2018-02-21T08:08:01.327Z,1.09
2018-02-21T08:13:03.419Z,1.20
2018-02-21T08:18:05.610Z,1.40
2018-02-21T08:23:06.963Z,1.79
2018-02-21T08:28:08.370Z,1.67
2018-02-21T08:33:09.818Z,1.74
2018-02-21T08:38:12.708Z,2.06
2018-02-21T08:43:14.077Z,2.22
2018-02-21T08:48:15.494Z,2.31
2018-02-21T08:53:16.827Z,2.57
2018-02-21T08:58:18.209Z,2.47
2018-02-21T09:03:19.608Z,2.60
2018-02-21T09:08:20.971Z,2.53
2018-02-21T09:13:23.047Z,2.68
2018-02-21T09:18:24.392Z,2.95
2018-02-21T09:23:25.790Z,3.07
2018-02-21T09:28:27.364Z,3.10
2018-02-21T09:33:29.438Z,2.99
2018-02-21T09:38:30.812Z,3.16
2018-02-21T09:43:32.167Z,3.46
2018-02-21T09:48:33.579Z,3.68
2018-02-21T09:53:34.974Z,3.58
2018-02-21T09:58:36.361Z,3.63
2018-02-21T10:03:37.732Z,3.81
2018-02-21T10:08:39.065Z,4.03
2018-02-21T10:13:40.487Z,4.01
2018-02-21T10:18:41.810Z,3.88
2018-02-21T10:23:43.180Z,4.30
2018-02-21T10:28:44.579Z,4.39
2018-02-21T10:33:45.938Z,4.40
2018-02-21T10:38:47.344Z,4.51
2018-02-21T10:43:49.442Z,4.78
2018-02-21T10:48:51.565Z,4.72
2018-02-21T10:53:53.640Z,4.82
2018-02-21T10:58:55.008Z,4.85
2018-02-21T11:03:56.390Z,5.10
2018-02-21T11:08:57.743Z,5.06
2018-02-21T11:13:59.817Z,5.37
2018-02-21T11:19:01.175Z,5.67
2018-02-21T11:24:02.572Z,6.14
2018-02-21T11:29:04.007Z,6.48
2018-02-21T11:34:06.078Z,6.33
2018-02-21T11:39:07.415Z,5.90
2018-02-21T11:44:09.539Z,6.03
2018-02-21T11:49:10.911Z,5.87
2018-02-21T11:54:13.063Z,5.94
2018-02-21T11:59:15.595Z,6.03
2018-02-21T12:04:17.127Z,5.86
2018-02-21T12:09:19.755Z,5.84
2018-02-21T12:14:21.196Z,6.12
2018-02-21T12:19:22.692Z,6.13
2018-02-21T12:24:24.048Z,6.07
2018-02-21T12:29:25.437Z,5.99
2018-02-21T12:34:26.815Z,6.23
2018-02-21T12:39:33.275Z,6.20
2018-02-21T12:44:34.655Z,6.14
2018-02-21T12:49:37.398Z,6.29
2018-02-21T12:54:39.276Z,6.49
2018-02-21T12:59:40.788Z,6.80
2018-02-21T13:04:43.428Z,6.68
2018-02-21T13:09:45.548Z,7.22
2018-02-21T13:14:46.931Z,7.93
2018-02-21T13:19:49.090Z,7.77
2018-02-21T13:24:50.688Z,7.07
2018-02-21T13:29:52.062Z,6.69
2018-02-21T13:34:53.607Z,7.18
2018-02-21T13:39:54.973Z,7.23
2018-02-21T13:44:56.355Z,6.58
2018-02-21T13:49:57.735Z,6.63
2018-02-21T13:54:59.132Z,7.18
2018-02-21T14:00:00.585Z,7.03
2018-02-21T14:05:02.713Z,7.32
2018-02-21T14:10:04.121Z,7.51
2018-02-21T14:15:05.526Z,7.31
2018-02-21T14:20:06.927Z,7.41
2018-02-21T14:25:08.332Z,7.07
2018-02-21T14:30:09.716Z,6.93
2018-02-21T14:35:11.087Z,6.98
2018-02-21T14:40:12.467Z,6.77
2018-02-21T14:45:13.887Z,6.41
2018-02-21T14:50:15.260Z,6.49
2018-02-21T14:55:16.624Z,6.53
2018-02-21T15:00:17.985Z,6.41
2018-02-21T15:05:20.092Z,6.49
2018-02-21T15:10:22.508Z,6.77
2018-02-21T15:15:24.606Z,6.68
2018-02-21T15:20:26.764Z,6.50
2018-02-21T15:25:28.118Z,6.47
2018-02-21T15:30:30.640Z,6.52
2018-02-21T15:35:32.441Z,6.16
2018-02-21T15:40:41.208Z,6.48
2018-02-21T15:45:42.800Z,6.02
2018-02-21T15:50:44.284Z,6.28
2018-02-21T15:55:45.789Z,6.30
2018-02-21T16:00:47.277Z,6.11
2018-02-21T16:05:48.650Z,6.34
2018-02-21T16:10:50.768Z,6.42
2018-02-21T16:15:52.083Z,6.13
2018-02-21T16:20:53.487Z,6.06
2018-02-21T16:25:54.928Z,5.90
2018-02-21T16:30:56.391Z,5.78
2018-02-21T16:35:57.758Z,5.78
2018-02-21T16:40:59.148Z,5.66
2018-02-21T16:46:00.520Z,5.54
2018-02-21T16:51:01.925Z,5.55
2018-02-21T16:56:03.321Z,5.46
2018-02-21T17:01:04.694Z,5.35
2018-02-21T17:06:07.007Z,5.44
2018-02-21T17:11:08.429Z,5.30
2018-02-21T17:16:09.811Z,5.28
2018-02-21T17:21:11.123Z,5.27
2018-02-21T17:26:12.515Z,5.31
2018-02-21T17:31:13.873Z,5.39
2018-02-21T17:36:15.518Z,5.25
2018-02-21T17:41:32.669Z,5.30
2018-02-21T17:46:34.011Z,5.14
2018-02-21T17:51:35.371Z,5.24
2018-02-21T17:56:37.459Z,4.89
2018-02-21T18:01:38.890Z,4.96
2018-02-21T18:06:40.273Z,5.00
2018-02-21T18:11:41.652Z,4.92
2018-02-21T18:16:43.862Z,4.76
2018-02-21T18:21:48.899Z,4.80
2018-02-21T18:26:50.239Z,4.73
2018-02-21T18:31:51.677Z,4.80
2018-02-21T18:36:53.207Z,4.82
2018-02-21T18:41:54.651Z,4.80
2018-02-21T18:46:56.039Z,4.66
2018-02-21T18:51:57.411Z,4.41
2018-02-21T18:56:58.847Z,4.39
2018-02-21T19:02:00.239Z,4.37
2018-02-21T19:07:02.996Z,4.31
2018-02-21T19:12:05.102Z,4.16
2018-02-21T19:17:07.178Z,4.33
2018-02-21T19:22:09.296Z,4.31
2018-02-21T19:27:10.692Z,4.48
2018-02-21T19:32:13.051Z,4.37
2018-02-21T19:37:15.275Z,4.40
2018-02-21T19:42:16.640Z,4.47
2018-02-21T19:47:17.991Z,4.39
2018-02-21T19:52:20.271Z,4.40
2018-02-21T19:57:22.528Z,4.33
2018-02-21T20:02:23.935Z,4.28
2018-02-21T20:07:26.043Z,4.20
2018-02-21T20:12:27.431Z,4.29
2018-02-21T20:17:29.601Z,4.39
2018-02-21T20:22:30.940Z,4.15
2018-02-21T20:27:32.321Z,4.18
2018-02-21T20:32:33.691Z,4.30
2018-02-21T20:37:35.941Z,4.08
2018-02-21T20:42:37.420Z,4.38
2018-02-21T20:47:39.572Z,4.40
2018-02-21T20:52:40.921Z,4.24
2018-02-21T20:57:42.384Z,3.87
2018-02-21T21:02:43.907Z,4.19
2018-02-21T21:07:45.271Z,4.43
2018-02-21T21:12:46.659Z,4.29
2018-02-21T21:17:47.997Z,4.26
2018-02-21T21:22:49.468Z,4.32
2018-02-21T21:27:50.828Z,4.21
2018-02-21T21:32:52.172Z,4.41
2018-02-21T21:37:53.645Z,4.49
2018-02-21T21:42:55.735Z,4.45
2018-02-21T21:47:57.818Z,4.38
2018-02-21T21:52:59.431Z,4.37
2018-02-21T21:58:01.526Z,4.42
2018-02-21T22:03:03.067Z,4.28
2018-02-21T22:08:04.579Z,4.26
2018-02-21T22:13:05.955Z,4.14
2018-02-21T22:18:07.461Z,4.20
2018-02-21T22:23:08.843Z,4.17
2018-02-21T22:28:10.152Z,4.05
2018-02-21T22:33:11.579Z,4.00
2018-02-21T22:38:12.975Z,3.91
2018-02-21T22:43:15.083Z,3.94
2018-02-21T22:48:16.483Z,3.94
2018-02-21T22:53:17.831Z,3.75
2018-02-21T22:58:19.181Z,3.65
2018-02-21T23:03:20.530Z,3.44
2018-02-21T23:08:22.041Z,3.16
2018-02-21T23:13:24.180Z,3.11
2018-02-21T23:18:25.521Z,3.09
2018-02-21T23:23:26.926Z,2.96
2018-02-21T23:28:29.005Z,2.85
2018-02-21T23:33:30.315Z,2.78
2018-02-21T23:38:32.415Z,2.89
2018-02-21T23:43:33.776Z,2.60
2018-02-21T23:48:35.220Z,2.66
2018-02-21T23:53:36.707Z,2.58
2018-02-21T23:58:38.767Z,2.28
